Time;durP1;ratioP1;P1;durP2;ratioP2;P2;SDS_P1;SDS_P2;PMS_P1;PMS_P2;Temp;Humidity;BMP_temperature;BMP_pressure;BME280_temperature;BME280_humidity;BME280_pressure;Samples;Min_cycle;Max_cycle;Signal;HPM_P1;HPM_P2
2022/04/10 00:01:24;;;;;;;10.30;4.90;;;;;;;9.96;50.53;96567.44;10294476;28;20092;-63
2022/04/10 00:06:24;;;;;;;8.45;4.47;;;;;;;9.20;51.77;96442.66;10294439;28;20384;-63
2022/04/10 00:11:23;;;;;;;8.75;4.57;;;;;;;8.57;52.15;96366.06;10294050;28;20073;-63
2022/04/10 00:16:22;;;;;;;7.72;3.63;;;;;;;9.92;52.05;96576.16;10293793;28;20454;-63
2022/04/10 00:21:21;;;;;;;7.88;3.30;;;;;;;10.02;52.06;96571.66;10287314;28;20038;-63
2022/04/10 00:26:20;;;;;;;5.68;3.67;;;;;;;9.82;52.24;96517.59;10293692;28;20455;-63
2022/04/10 00:31:19;;;;;;;8.13;3.42;;;;;;;9.70;53.24;96483.25;10293006;28;20048;-63
2022/04/10 00:36:18;;;;;;;9.18;3.78;;;;;;;10.30;53.72;96562.47;10293300;28;20076;-63
2022/04/10 00:41:17;;;;;;;9.73;4.57;;;;;;;10.38;53.42;96554.56;10293140;28;20100;-63
2022/04/10 00:46:16;;;;;;;9.15;4.03;;;;;;;10.06;52.95;96472.22;10291431;28;20396;-63
2022/04/10 00:56:34;;;;;;;11.20;5.43;;;;;;;10.19;53.27;96479.72;10285534;28;20117;-63
2022/04/10 01:01:34;;;;;;;13.02;6.68;;;;;;;10.37;53.98;96542.47;10291997;28;20062;-63
2022/04/10 01:06:34;;;;;;;12.55;5.90;;;;;;;9.78;54.18;96493.47;10292724;28;20072;-63
2022/04/10 01:11:33;;;;;;;11.43;4.72;;;;;;;10.14;54.79;96546.38;10295102;28;20065;-63
2022/04/10 01:16:34;;;;;;;5.80;3.60;;;;;;;10.14;55.05;96546.38;10294989;28;20071;-63
2022/04/10 01:21:39;;;;;;;10.60;4.10;;;;;;;9.79;55.13;96474.44;10295703;28;20069;-63
2022/04/10 01:26:38;;;;;;;6.10;3.53;;;;;;;9.66;56.11;96476.41;10287997;28;20069;-63
2022/04/10 01:31:40;;;;;;;6.40;2.75;;;;;;;9.42;55.72;96415.56;10294443;28;20068;-63
2022/04/10 01:36:40;;;;;;;7.38;3.58;;;;;;;9.83;55.32;96457.13;10294717;28;20492;-63
2022/04/10 01:41:39;;;;;;;5.82;3.00;;;;;;;10.23;55.36;96505.59;10294626;28;20068;-63
2022/04/10 01:46:38;;;;;;;9.88;3.80;;;;;;;10.29;55.43;96495.09;10294081;28;20062;-63
2022/04/10 01:51:37;;;;;;;6.55;3.70;;;;;;;10.03;55.48;96438.56;10294089;28;20038;-63
2022/04/10 01:56:36;;;;;;;10.18;5.18;;;;;;;10.42;55.50;96493.94;10287329;28;20087;-63
2022/04/10 02:01:36;;;;;;;;;;;;;;;10.41;55.48;96506.06;10293870;28;20062;-63
2022/04/10 02:06:35;;;;;;;9.38;4.93;;;;;;;10.31;55.74;96485.56;10293534;28;20391;-63
2022/04/10 02:11:34;;;;;;;16.27;5.40;;;;;;;10.24;56.08;96487.41;10289547;28;20069;-63
2022/04/10 02:16:33;;;;;;;11.32;5.68;;;;;;;9.62;56.74;96401.38;10289971;28;20077;-63
2022/04/10 02:21:32;;;;;;;10.85;4.05;;;;;;;9.96;57.80;96489.69;10290041;28;20109;-63
2022/04/10 02:26:31;;;;;;;11.75;3.95;;;;;;;9.64;58.42;96447.09;10282589;28;20530;-63
2022/04/10 02:31:30;;;;;;;11.15;3.08;;;;;;;9.41;59.61;96475.13;10290042;28;20045;-63
2022/04/10 02:36:29;;;;;;;6.78;2.88;;;;;;;9.43;59.84;96510.47;10289219;28;20073;-63
2022/04/10 02:41:28;;;;;;;8.13;2.92;;;;;;;9.31;59.72;96503.75;10289013;28;20040;-63
2022/04/10 02:46:27;;;;;;;11.05;3.33;;;;;;;9.25;59.95;96514.16;10289684;28;20500;-63
2022/04/10 02:51:26;;;;;;;7.80;3.55;;;;;;;9.18;59.65;96519.47;10288716;28;20587;-62
2022/04/10 02:56:25;;;;;;;8.02;3.83;;;;;;;9.11;59.71;96510.94;10289682;28;20404;-62
2022/04/10 03:01:23;;;;;;;10.02;5.28;;;;;;;8.95;60.32;96494.81;10297640;28;20061;-63
2022/04/10 03:06:22;;;;;;;13.25;5.50;;;;;;;8.75;60.72;96471.81;10296437;28;20140;-63
2022/04/10 03:11:24;;;;;;;12.10;5.25;;;;;;;8.33;61.31;96398.31;10296515;28;20034;-63
2022/04/10 03:16:23;;;;;;;12.73;5.43;;;;;;;8.91;62.76;96514.69;10296443;28;20072;-63
2022/04/10 03:21:22;;;;;;;11.25;5.28;;;;;;;9.02;62.65;96534.38;10296280;28;20069;-63
2022/04/10 03:26:21;;;;;;;10.50;5.00;;;;;;;8.59;62.77;96478.94;10295521;28;20037;-63
2022/04/10 03:31:21;;;;;;;10.05;5.20;;;;;;;8.83;63.39;96511.38;10289822;28;20076;-63
2022/04/10 03:36:20;;;;;;;13.73;5.65;;;;;;;8.70;63.48;96484.81;10295544;28;20076;-63
2022/04/10 03:41:19;;;;;;;13.88;6.07;;;;;;;8.81;63.88;96491.53;10295425;28;20080;-63
2022/04/10 03:46:18;;;;;;;15.10;6.82;;;;;;;9.16;64.06;96563.50;10295286;28;20117;-63
2022/04/10 03:51:17;;;;;;;12.52;5.15;;;;;;;8.86;64.39;96541.50;10295447;28;20092;-62
2022/04/10 03:56:16;;;;;;;12.57;5.78;;;;;;;8.98;64.59;96554.28;10295635;28;20069;-63
2022/04/10 04:01:15;;;;;;;12.43;4.80;;;;;;;8.56;64.27;96488.47;10288247;28;20036;-63
2022/04/10 04:06:14;;;;;;;16.75;7.45;;;;;;;8.15;66.46;96503.59;10292502;28;20073;-63
2022/04/10 04:11:13;;;;;;;17.70;8.05;;;;;;;8.75;65.49;96593.38;10294622;28;20125;-62
2022/04/10 04:16:11;;;;;;;17.27;8.13;;;;;;;8.93;64.95;96572.44;10293684;28;20033;-63
2022/04/10 04:21:10;;;;;;;13.85;7.80;;;;;;;8.69;64.98;96521.91;10293807;28;20044;-63
2022/04/10 04:26:10;;;;;;;16.42;7.63;;;;;;;8.65;64.98;96494.38;10294085;28;20034;-63
2022/04/10 04:31:09;;;;;;;;;;;;;;;9.27;64.60;96581.47;10287009;28;20073;-63
2022/04/10 04:36:07;;;;;;;17.00;10.38;;;;;;;8.66;65.31;96464.19;10292757;28;19971;-63
2022/04/10 04:41:10;;;;;;;12.13;7.40;;;;;;;9.12;65.21;96515.25;10293790;28;20033;-63
2022/04/10 04:46:09;;;;;;;13.60;7.03;;;;;;;9.43;65.49;96551.06;10271909;28;20069;-63
2022/04/10 04:51:08;;;;;;;15.70;7.72;;;;;;;9.38;66.18;96533.00;10292279;28;20072;-63
2022/04/10 04:56:07;;;;;;;13.45;6.95;;;;;;;9.74;66.16;96579.88;10292811;28;20134;-63
2022/04/10 05:01:06;;;;;;;14.63;9.57;;;;;;;9.62;66.97;96562.81;10291830;28;20044;-63
2022/04/10 05:06:05;;;;;;;12.95;6.07;;;;;;;9.17;68.46;96570.38;10292197;28;20026;-62
2022/04/10 05:11:03;;;;;;;14.40;7.32;;;;;;;8.87;69.30;96536.31;10292202;28;20861;-62
2022/04/10 05:16:03;;;;;;;11.25;6.10;;;;;;;8.83;71.81;96588.97;10288369;28;20269;-62
2022/04/10 05:21:02;;;;;;;10.23;5.95;;;;;;;8.60;72.30;96598.72;10291557;28;20069;-62
2022/04/10 05:26:02;;;;;;;;;;;;;;;8.06;72.84;96587.25;10292062;28;20503;-63
2022/04/10 05:31:02;;;;;;;17.55;9.80;;;;;;;8.27;72.08;96572.38;10290848;28;19949;-62
2022/04/10 05:36:01;;;;;;;28.75;18.25;;;;;;;8.34;71.43;96545.63;10291288;28;20069;-62
2022/04/10 05:41:00;;;;;;;;;;;;;;;9.01;72.09;96625.81;10291443;28;20066;-62
2022/04/10 05:45:59;;;;;;;12.75;7.88;;;;;;;9.07;72.05;96599.88;10290330;28;19948;-62
2022/04/10 05:50:58;;;;;;;11.40;7.32;;;;;;;9.49;71.12;96631.25;10288599;28;20112;-62
2022/04/10 05:55:58;;;;;;;13.23;7.10;;;;;;;9.15;71.06;96536.75;10290622;28;20128;-62
2022/04/10 06:00:57;;;;;;;17.00;8.70;;;;;;;9.93;70.37;96627.06;10289922;28;20045;-62
2022/04/10 06:05:56;;;;;;;16.25;10.05;;;;;;;9.78;71.91;96651.50;10290152;28;20060;-62
2022/04/10 06:10:55;;;;;;;16.50;11.32;;;;;;;9.66;73.13;96665.50;10291052;28;20041;-62
2022/04/10 06:15:54;;;;;;;16.15;11.25;;;;;;;9.52;74.37;96683.84;10289134;28;20487;-63
2022/04/10 06:20:53;;;;;;;21.95;13.35;;;;;;;8.75;74.52;96572.69;10289257;28;20552;-62
2022/04/10 06:25:52;;;;;;;22.38;16.02;;;;;;;8.62;76.52;96597.84;10286624;28;20499;-62
2022/04/10 06:30:51;;;;;;;23.65;16.55;;;;;;;8.19;77.46;96585.38;10288283;28;20037;-62
2022/04/10 06:35:50;;;;;;;27.23;19.52;;;;;;;8.37;78.67;96654.13;10288704;28;20029;-62
2022/04/10 06:40:51;;;;;;;26.30;18.02;;;;;;;7.88;79.43;96636.50;10288981;28;20426;-62
2022/04/10 06:45:50;;;;;;;28.60;21.13;;;;;;;7.22;81.56;96627.47;10288987;28;20546;-62
2022/04/10 06:50:49;;;;;;;31.77;20.65;;;;;;;7.41;83.38;96735.78;10288522;28;20105;-62
2022/04/10 06:55:48;;;;;;;35.05;24.00;;;;;;;7.00;84.74;96703.25;10286886;28;20080;-62
2022/04/10 07:00:47;;;;;;;35.47;25.05;;;;;;;6.82;84.60;96696.44;10287998;28;20069;-63
2022/04/10 07:05:48;;;;;;;37.75;25.55;;;;;;;7.18;84.89;96754.78;10288672;28;20124;-62
2022/04/10 07:10:47;;;;;;;38.50;26.40;;;;;;;7.12;85.67;96748.78;10289065;28;20069;-63
2022/04/10 07:15:52;;;;;;;40.53;28.67;;;;;;;6.82;85.74;96710.19;10288775;28;20061;-63
2022/04/10 07:20:51;;;;;;;35.42;24.65;;;;;;;6.89;86.55;96739.41;10288958;28;20464;-63
2022/04/10 07:25:50;;;;;;;39.65;24.10;;;;;;;6.74;86.95;96744.59;10288322;28;20494;-63
2022/04/10 07:30:49;;;;;;;39.05;27.02;;;;;;;6.80;87.43;96766.06;10281264;28;20514;-62
2022/04/10 07:35:48;;;;;;;45.38;27.48;;;;;;;6.30;88.37;96717.16;10288273;28;20475;-62
2022/04/10 07:40:47;;;;;;;40.55;24.98;;;;;;;6.51;89.28;96775.56;10291737;28;20582;-62
2022/04/10 07:51:04;;;;;;;46.78;27.80;;;;;;;5.68;90.45;96631.38;10294634;28;20085;-63
2022/04/10 07:56:03;;;;;;;;;;;;;;;6.44;91.24;96763.53;10295649;28;20475;-63
2022/04/10 08:01:02;;;;;;;43.97;25.17;;;;;;;6.39;91.20;96748.94;10288207;28;20382;-63
2022/04/10 08:06:01;;;;;;;43.05;25.15;;;;;;;5.85;91.70;96657.09;10294121;28;20077;-63
2022/04/10 08:11:00;;;;;;;43.08;26.17;;;;;;;6.46;92.08;96772.97;10294661;28;20039;-63
2022/04/10 08:15:59;;;;;;;43.42;25.42;;;;;;;5.55;92.27;96640.78;10294830;28;20556;-63
2022/04/10 08:20:58;;;;;;;37.92;22.27;;;;;;;6.01;92.57;96728.34;10291344;28;20053;-63
2022/04/10 08:25:57;;;;;;;42.17;26.95;;;;;;;5.97;93.25;96727.47;10292842;28;20508;-63
2022/04/10 08:30:56;;;;;;;43.63;27.08;;;;;;;6.27;92.87;96725.75;10293245;28;20581;-63
2022/04/10 08:35:56;;;;;;;42.08;23.98;;;;;;;6.46;92.43;96772.13;10291889;28;20081;-63
2022/04/10 08:41:00;;;;;;;39.58;25.40;;;;;;;5.51;92.17;96627.06;10293443;28;20077;-63
2022/04/10 08:45:59;;;;;;;53.28;33.67;;;;;;;6.52;92.75;96772.97;10325346;28;20589;-63
2022/04/10 08:50:59;;;;;;;42.33;25.67;;;;;;;6.31;91.76;96745.50;10332146;28;20417;-63
2022/04/10 08:55:58;;;;;;;58.35;31.40;;;;;;;6.27;92.19;96755.81;10333814;28;20092;-63
2022/04/10 09:00:57;;;;;;;39.95;23.65;;;;;;;5.95;91.66;96716.31;10304570;28;20416;-63
2022/04/10 09:06:06;;;;;;;38.53;24.33;;;;;;;5.84;92.19;96712.88;10289631;28;20037;-63
2022/04/10 09:11:10;;;;;;;37.55;23.70;;;;;;;5.84;91.56;96723.19;10288504;28;20068;-63
2022/04/10 09:16:20;;;;;;;22.65;14.02;;;;;;;6.02;90.96;96796.16;10288705;28;20069;-63
2022/04/10 09:21:22;;;;;;;24.58;15.35;;;;;;;6.02;91.10;96791.00;10290677;28;20555;-63
2022/04/10 09:26:21;;;;;;;16.92;11.52;;;;;;;5.90;90.28;96804.72;10291584;28;20492;-63
2022/04/10 09:31:29;;;;;;;17.70;11.38;;;;;;;5.74;90.42;96785.78;10291543;28;20137;-63
2022/04/10 09:36:41;;;;;;;14.43;9.95;;;;;;;5.61;89.90;96753.19;10290834;28;20061;-63
2022/04/10 09:41:42;;;;;;;16.02;10.43;;;;;;;6.04;89.63;96836.50;10290574;28;20104;-62
2022/04/10 09:46:41;;;;;;;12.75;8.40;;;;;;;5.10;88.51;96681.84;10291029;28;20069;-62
2022/04/10 09:52:01;;;;;;;18.58;12.73;;;;;;;5.94;89.13;96830.47;10290423;28;20089;-62
2022/04/10 09:57:03;;;;;;;9.48;6.22;;;;;;;5.25;88.62;96747.94;10288827;28;20115;-62
2022/04/10 10:02:04;;;;;;;13.35;8.52;;;;;;;5.06;89.05;96711.00;10290178;28;20065;-62
2022/04/10 10:07:10;;;;;;;10.68;7.10;;;;;;;5.53;88.70;96823.50;10289875;28;20076;-62
2022/04/10 10:12:10;;;;;;;9.75;6.47;;;;;;;5.47;88.63;96796.88;10289571;28;20076;-63
2022/04/10 10:17:10;;;;;;;15.23;9.82;;;;;;;5.65;88.53;96847.53;10288889;28;20565;-62
2022/04/10 10:22:13;;;;;;;12.38;8.10;;;;;;;5.47;88.57;96848.34;10289609;28;20557;-62
2022/04/10 10:27:14;;;;;;;7.68;4.57;;;;;;;5.43;88.33;96838.88;10289902;28;20065;-62
2022/04/10 10:32:43;;;;;;;14.43;8.63;;;;;;;5.41;88.81;96843.16;10289656;28;20065;-62
2022/04/10 10:37:52;;;;;;;10.65;7.70;;;;;;;5.41;89.53;96838.00;10287001;28;20077;-62
2022/04/10 10:42:51;;;;;;;11.82;6.63;;;;;;;5.41;90.28;96849.16;10289026;28;20076;-61
2022/04/10 10:48:01;;;;;;;;;;;;;;;5.39;89.82;96848.31;10289264;28;20076;-62
2022/04/10 10:53:05;;;;;;;18.40;9.50;;;;;;;5.05;90.17;96817.25;10289248;28;20407;-61
2022/04/10 10:58:07;;;;;;;27.38;17.08;;;;;;;4.74;90.60;96787.91;10288880;28;20068;-62
2022/04/10 11:03:09;;;;;;;10.95;6.88;;;;;;;4.32;92.15;96752.53;10288745;28;20065;-64
2022/04/10 11:08:10;;;;;;;20.02;10.15;;;;;;;4.97;93.41;96847.22;10288823;28;20085;-63
2022/04/10 11:13:09;;;;;;;11.95;7.40;;;;;;;4.67;93.93;96739.91;10288910;28;20065;-63
2022/04/10 11:18:23;;;;;;;;;;;;;;;5.27;95.07;96817.34;10296679;28;20065;-62
2022/04/10 11:23:29;;;;;;;5.22;3.42;;;;;;;5.23;95.05;96813.06;10296507;28;19971;-62
2022/04/10 11:28:31;;;;;;;6.63;3.72;;;;;;;5.24;94.99;96820.78;10295556;28;20065;-63
2022/04/10 11:33:47;;;;;;;5.20;3.70;;;;;;;5.41;95.20;96828.56;10295929;28;20064;-63
2022/04/10 11:39:23;;;;;;;9.73;6.55;;;;;;;5.49;95.20;96816.59;10296403;28;20068;-63
2022/04/10 11:44:24;;;;;;;12.13;7.20;;;;;;;5.56;94.98;96817.50;10283920;28;20080;-63
2022/04/10 11:49:23;;;;;;;6.63;4.78;;;;;;;4.49;94.29;96671.28;10290949;28;20113;-63
2022/04/10 11:54:33;;;;;;;10.75;6.78;;;;;;;5.36;94.91;96819.97;10253628;28;20428;-64
2022/04/10 11:59:35;;;;;;;9.50;6.60;;;;;;;5.56;95.07;96799.47;10270880;28;20074;-64
2022/04/10 12:04:36;;;;;;;10.10;5.78;;;;;;;5.63;94.53;96797.78;10263560;28;20062;-64
2022/04/10 12:09:35;;;;;;;6.57;4.90;;;;;;;5.71;94.55;96801.22;10253873;28;20475;-63
2022/04/10 12:14:34;;;;;;;11.82;7.20;;;;;;;5.80;94.41;96810.69;10254364;28;20073;-63
2022/04/10 12:19:37;;;;;;;;;;;;;;;5.80;94.08;96805.56;10254324;28;20497;-64
2022/04/10 12:24:38;;;;;;;9.30;5.03;;;;;;;5.65;93.54;96808.94;10285435;28;19976;-63
2022/04/10 12:29:37;;;;;;;6.75;4.40;;;;;;;5.38;94.09;96756.53;10293455;28;20422;-65
2022/04/10 12:34:41;;;;;;;5.72;3.83;;;;;;;5.69;94.13;96764.34;10292869;28;20080;-64
2022/04/10 12:39:41;;;;;;;7.65;5.57;;;;;;;5.20;93.51;96674.16;10293268;28;20069;-64
2022/04/10 12:44:41;;;;;;;7.25;4.88;;;;;;;6.01;94.00;96803.03;10293218;28;20543;-64
2022/04/10 12:49:40;;;;;;;7.18;4.80;;;;;;;5.85;93.84;96785.81;10291920;28;20081;-63
2022/04/10 12:54:44;;;;;;;9.65;6.95;;;;;;;5.01;93.70;96647.53;10292478;28;20081;-64
2022/04/10 12:59:46;;;;;;;6.47;5.07;;;;;;;5.73;93.76;96776.34;10271289;28;20571;-64
2022/04/10 13:04:56;;;;;;;6.65;4.22;;;;;;;5.31;93.75;96724.78;10269246;28;20113;-64
2022/04/10 13:10:01;;;;;;;10.70;7.07;;;;;;;5.58;94.00;96796.91;10255915;28;20084;-64
2022/04/10 13:15:00;;;;;;;11.15;6.53;;;;;;;5.61;94.25;96804.66;10254106;28;20049;-64
2022/04/10 13:20:06;;;;;;;;;;;;;;;5.45;94.59;96801.16;10267404;28;20069;-64
2022/04/10 13:25:07;;;;;;;9.80;6.13;;;;;;;5.36;95.35;96821.69;10256528;28;19967;-63
2022/04/10 13:30:06;;;;;;;7.65;5.00;;;;;;;5.48;95.03;96789.13;10256349;28;20070;-63
2022/04/10 13:35:08;;;;;;;;;;;;;;;5.66;95.01;96810.66;10260299;28;20120;-64
2022/04/10 13:40:07;;;;;;;9.35;5.53;;;;;;;5.65;94.93;96789.22;10261020;28;19949;-64
2022/04/10 13:45:06;;;;;;;14.00;8.00;;;;;;;5.67;94.98;96804.66;10250524;28;20066;-64
2022/04/10 13:50:07;;;;;;;11.25;6.80;;;;;;;5.76;95.17;96804.66;10281843;28;20538;-64
2022/04/10 13:55:06;;;;;;;10.30;6.10;;;;;;;5.38;95.18;96740.25;10289931;28;20468;-64
2022/04/10 14:00:06;;;;;;;9.75;6.78;;;;;;;4.96;94.65;96695.50;10290097;28;20086;-64
2022/04/10 14:05:07;;;;;;;7.22;3.88;;;;;;;4.72;94.78;96679.09;10285965;28;20069;-64
2022/04/10 14:10:06;;;;;;;16.60;9.27;;;;;;;5.61;94.87;96813.22;10286537;28;20076;-64
2022/04/10 14:15:05;;;;;;;;;;;;;;;5.71;94.79;96824.41;10315895;28;20053;-64
2022/04/10 14:20:05;;;;;;;9.93;6.20;;;;;;;5.67;94.75;96812.38;10313231;28;20006;-64
2022/04/10 14:25:04;;;;;;;10.02;6.00;;;;;;;5.31;94.58;96777.94;10278696;28;20068;-64
2022/04/10 14:30:04;;;;;;;9.70;6.15;;;;;;;5.23;94.29;96766.78;10280437;28;20069;-66
2022/04/10 14:35:03;;;;;;;;;;;;;;;5.64;94.07;96831.22;10288921;28;20061;-63
2022/04/10 14:40:02;;;;;;;9.18;5.88;;;;;;;5.07;93.90;96743.56;10289062;28;19920;-65
2022/04/10 14:45:02;;;;;;;9.48;6.15;;;;;;;5.58;93.93;96822.63;10290478;28;20437;-65
2022/04/10 14:50:01;;;;;;;11.15;7.72;;;;;;;5.45;94.08;96814.00;10292052;28;20507;-65
2022/04/10 14:55:00;;;;;;;13.70;8.52;;;;;;;5.65;94.16;96858.72;10297126;28;20061;-65
2022/04/10 14:59:59;;;;;;;16.77;9.93;;;;;;;5.25;94.11;96807.09;10297384;28;20088;-64
2022/04/10 15:04:59;;;;;;;16.92;11.55;;;;;;;5.19;93.67;96837.91;10295982;28;20133;-65
2022/04/10 15:09:58;;;;;;;24.35;16.00;;;;;;;5.33;93.73;96884.28;10296493;28;20129;-64
2022/04/10 15:14:57;;;;;;;25.13;18.25;;;;;;;4.45;93.52;96744.03;10296720;28;20065;-64
2022/04/10 15:19:56;;;;;;;24.17;14.38;;;;;;;5.12;93.71;96880.72;10295420;28;20072;-64
2022/04/10 15:24:55;;;;;;;17.75;12.10;;;;;;;4.81;94.08;96850.50;10296044;28;20120;-64
2022/04/10 15:29:55;;;;;;;13.32;8.82;;;;;;;4.52;93.73;96843.41;10296415;28;20112;-64
2022/04/10 15:34:54;;;;;;;25.50;15.63;;;;;;;4.20;93.87;96778.97;10286269;28;20066;-64
2022/04/10 15:39:53;;;;;;;10.90;7.63;;;;;;;4.64;93.98;96835.81;10294631;28;20558;-63
2022/04/10 15:44:52;;;;;;;13.52;9.68;;;;;;;4.77;93.76;96864.19;10295637;28;20451;-63
2022/04/10 15:49:53;;;;;;;16.33;10.32;;;;;;;5.15;93.84;96912.47;10294217;28;20153;-63
2022/04/10 15:54:54;;;;;;;14.80;10.38;;;;;;;4.31;93.78;96766.19;10294615;28;20064;-63
2022/04/10 15:59:53;;;;;;;12.55;8.70;;;;;;;4.82;93.58;96850.50;10294771;28;20113;-63
2022/04/10 16:04:52;;;;;;;13.75;9.00;;;;;;;5.14;93.68;96916.75;10287194;28;20034;-63
2022/04/10 16:09:51;;;;;;;10.63;7.03;;;;;;;4.70;93.20;96864.13;10293935;28;20040;-63
2022/04/10 16:14:50;;;;;;;10.10;6.63;;;;;;;4.95;93.05;96918.34;10294626;28;20022;-63
2022/04/10 16:19:49;;;;;;;11.32;7.32;;;;;;;4.82;93.61;96924.19;10293267;28;20117;-63
2022/04/10 16:24:48;;;;;;;8.02;5.63;;;;;;;4.16;93.22;96811.44;10293797;28;20072;-63
2022/04/10 16:35:06;;;;;;;7.97;5.88;;;;;;;4.29;93.09;96856.94;10293467;28;19956;-62
2022/04/10 16:40:06;;;;;;;9.15;5.95;;;;;;;4.79;93.18;96925.03;10285738;28;20061;-62
2022/04/10 16:45:06;;;;;;;8.38;5.30;;;;;;;4.60;93.14;96895.75;10292817;28;20068;-63
2022/04/10 16:50:08;;;;;;;16.38;9.02;;;;;;;4.12;92.98;96837.06;10292136;28;20085;-62
2022/04/10 16:55:09;;;;;;;15.95;10.40;;;;;;;4.04;92.91;96867.81;10290743;28;20471;-62
2022/04/10 17:00:12;;;;;;;15.57;9.45;;;;;;;4.38;93.37;96938.31;10292034;28;20396;-62
2022/04/10 17:05:11;;;;;;;13.90;9.20;;;;;;;3.96;93.28;96866.84;10291528;28;20108;-62
2022/04/10 17:10:10;;;;;;;14.18;9.10;;;;;;;4.20;93.22;96915.91;10291742;28;20053;-62
2022/04/10 17:15:10;;;;;;;10.23;6.70;;;;;;;3.92;93.36;96880.53;10291498;28;20057;-62
2022/04/10 17:20:14;;;;;;;;;;;;;;;4.31;92.97;96956.25;10291862;28;20060;-62
2022/04/10 17:25:13;;;;;;;13.98;8.80;;;;;;;4.30;92.77;96963.09;10291550;28;20013;-62
2022/04/10 17:30:12;;;;;;;14.48;9.93;;;;;;;3.66;93.22;96860.56;10291363;28;20092;-62
2022/04/10 17:35:11;;;;;;;14.45;10.77;;;;;;;3.71;93.31;96896.53;10290678;28;20054;-62
2022/04/10 17:40:10;;;;;;;18.00;11.38;;;;;;;4.03;93.96;96987.63;10290860;28;20504;-62
2022/04/10 17:45:09;;;;;;;16.65;12.27;;;;;;;3.01;93.62;96826.41;10291076;28;20065;-62
2022/04/10 17:50:09;;;;;;;20.30;14.43;;;;;;;3.71;94.16;96958.97;10290301;28;20077;-62
2022/04/10 17:55:08;;;;;;;16.70;11.68;;;;;;;3.16;94.15;96896.66;10288734;28;20469;-62
2022/04/10 18:00:10;;;;;;;14.80;10.88;;;;;;;3.30;94.50;96940.44;10289459;28;20049;-61
2022/04/10 18:05:11;;;;;;;17.77;9.80;;;;;;;3.63;94.86;97006.72;10264998;28;20125;-62
2022/04/10 18:10:11;;;;;;;14.50;10.13;;;;;;;2.93;94.13;96893.75;10249390;28;20054;-62
2022/04/10 18:15:10;;;;;;;;;;;;;;;3.65;94.37;97015.31;10249106;28;20062;-61
2022/04/10 18:20:09;;;;;;;21.33;15.02;;;;;;;3.75;94.23;97024.00;10249944;28;19910;-61
2022/04/10 18:25:08;;;;;;;21.75;15.45;;;;;;;3.75;94.63;97003.47;10248203;28;20752;-61
2022/04/10 18:30:09;;;;;;;21.67;16.00;;;;;;;3.67;94.83;97013.66;10248869;28;20058;-61
2022/04/10 18:35:08;;;;;;;27.10;18.70;;;;;;;3.44;94.53;96980.81;10248973;28;20058;-61
2022/04/10 18:40:07;;;;;;;;;;;;;;;3.85;94.32;97021.59;10249371;28;20066;-61
2022/04/10 18:45:07;;;;;;;19.25;13.10;;;;;;;3.52;94.49;96959.53;10248539;28;19948;-61
2022/04/10 18:50:10;;;;;;;18.90;12.02;;;;;;;3.79;95.14;97023.22;10248817;28;20104;-61
2022/04/10 18:55:10;;;;;;;17.23;10.82;;;;;;;3.78;94.76;97031.78;10248624;28;20054;-61
2022/04/10 19:00:10;;;;;;;16.17;11.20;;;;;;;3.78;95.43;97022.34;10248168;28;20057;-61
2022/04/10 19:05:10;;;;;;;14.82;10.38;;;;;;;3.52;95.11;96962.09;10277976;28;20057;-61
2022/04/10 19:10:09;;;;;;;16.73;10.45;;;;;;;3.56;95.19;96982.69;10288966;28;20061;-61
2022/04/10 19:15:08;;;;;;;14.65;9.73;;;;;;;3.71;95.42;97015.41;10288328;28;20065;-62
2022/04/10 19:20:08;;;;;;;;;;;;;;;3.64;96.02;97009.34;10289549;28;20054;-62
2022/04/10 19:25:07;;;;;;;20.00;14.10;;;;;;;3.62;95.40;96994.75;10288321;28;19961;-59
2022/04/10 19:30:06;;;;;;;;;;;;;;;3.78;95.37;97000.97;10288353;28;20495;-59
2022/04/10 19:35:06;;;;;;;21.90;14.93;;;;;;;3.81;95.11;96995.88;10290146;28;19963;-60
2022/04/10 19:40:05;;;;;;;22.02;14.82;;;;;;;3.82;95.36;96983.06;10295673;28;20065;-59
2022/04/10 19:45:05;;;;;;;25.67;15.60;;;;;;;3.68;95.29;96947.78;10295228;28;20481;-59
2022/04/10 19:50:04;;;;;;;;;;;;;;;4.16;95.32;97008.28;10295910;28;20514;-60
2022/04/10 19:55:03;;;;;;;18.88;12.18;;;;;;;4.07;95.29;96985.94;10294962;28;19945;-60
2022/04/10 20:00:02;;;;;;;16.92;12.18;;;;;;;4.08;95.26;96992.81;10294322;28;20054;-60
2022/04/10 20:05:07;;;;;;;14.60;9.75;;;;;;;4.22;95.41;96996.41;10294345;28;20530;-59
2022/04/10 20:10:06;;;;;;;11.98;8.88;;;;;;;4.27;95.44;97012.72;10293027;28;20057;-61
2022/04/10 20:15:06;;;;;;;11.45;8.52;;;;;;;4.24;94.96;97022.06;10293285;28;20060;-61
2022/04/10 20:20:05;;;;;;;11.43;7.95;;;;;;;4.26;94.75;97020.41;10293910;28;20506;-62
2022/04/10 20:25:05;;;;;;;11.25;8.45;;;;;;;4.29;94.67;97021.31;10292758;28;20460;-61
2022/04/10 20:30:04;;;;;;;12.23;8.55;;;;;;;4.19;94.52;97011.75;10293397;28;20061;-61
2022/04/10 20:35:03;;;;;;;;;;;;;;;4.34;94.20;97036.78;10294174;28;20124;-62
2022/04/10 20:40:03;;;;;;;10.63;6.97;;;;;;;3.92;94.70;96970.34;10292983;28;19949;-61
2022/04/10 20:45:02;;;;;;;10.18;7.20;;;;;;;4.09;94.54;97007.34;10292776;28;20481;-61
2022/04/10 20:50:01;;;;;;;8.70;6.53;;;;;;;4.44;94.31;97068.56;10292270;28;20527;-61
2022/04/10 20:55:00;;;;;;;11.18;7.32;;;;;;;4.46;94.40;97069.44;10291369;28;20038;-61
2022/04/10 21:00:01;;;;;;;12.23;8.27;;;;;;;4.48;94.12;97080.59;10292093;28;20069;-61
2022/04/10 21:05:00;;;;;;;17.77;12.25;;;;;;;4.26;94.49;97082.88;10292358;28;20057;-61
2022/04/10 21:09:59;;;;;;;19.02;13.15;;;;;;;3.75;94.92;97032.59;10292225;28;20064;-60
2022/04/10 21:14:58;;;;;;;14.98;10.60;;;;;;;3.95;95.13;97075.63;10291718;28;20025;-60
2022/04/10 21:19:57;;;;;;;12.25;7.85;;;;;;;4.08;94.79;97100.63;10291466;28;20034;-60
2022/04/10 21:24:56;;;;;;;11.07;7.70;;;;;;;3.94;95.08;97076.44;10292041;28;20403;-60
2022/04/10 21:29:55;;;;;;;11.50;8.43;;;;;;;3.75;94.62;97045.41;10291740;28;20113;-60
2022/04/10 21:34:54;;;;;;;16.25;10.02;;;;;;;3.25;94.89;97001.91;10291566;28;20061;-60
2022/04/10 21:39:53;;;;;;;12.18;8.13;;;;;;;3.65;94.81;97111.09;10291318;28;20030;-60
2022/04/10 21:44:52;;;;;;;12.95;9.27;;;;;;;3.74;95.16;97137.75;10290463;28;20038;-60
2022/04/10 21:49:51;;;;;;;12.93;9.35;;;;;;;2.77;94.98;97002.84;10290519;28;20136;-60
2022/04/10 21:54:50;;;;;;;9.88;7.80;;;;;;;3.53;95.56;97157.09;10290922;28;20384;-60
2022/04/10 21:59:48;;;;;;;12.80;8.63;;;;;;;2.35;95.35;96966.22;10289784;28;20037;-60
2022/04/10 22:04:47;;;;;;;13.32;9.73;;;;;;;3.23;95.38;97113.81;10264291;28;20044;-60
2022/04/10 22:09:46;;;;;;;6.22;4.10;;;;;;;3.56;94.87;97161.41;10249852;28;20113;-60
2022/04/10 22:14:45;;;;;;;7.72;4.43;;;;;;;3.52;94.37;97159.63;10249114;28;20109;-59
2022/04/10 22:19:44;;;;;;;8.55;4.03;;;;;;;3.57;94.55;97176.84;10246184;28;20034;-60
2022/04/10 22:24:43;;;;;;;6.38;3.55;;;;;;;3.54;94.09;97170.78;10245404;28;20053;-60
2022/04/10 22:29:42;;;;;;;5.28;3.78;;;;;;;3.33;93.84;97143.94;10245641;28;20034;-59
2022/04/10 22:34:44;;;;;;;6.25;3.80;;;;;;;3.05;93.52;97109.25;10248141;28;20065;-60
2022/04/10 22:39:44;;;;;;;5.50;3.13;;;;;;;3.24;93.68;97156.59;10248962;28;20062;-60
2022/04/10 22:44:43;;;;;;;3.33;2.25;;;;;;;2.26;93.54;97011.28;10248320;28;20479;-60
2022/04/10 22:49:42;;;;;;;6.32;3.35;;;;;;;3.40;93.28;97196.19;10248318;28;20509;-60
2022/04/10 22:54:41;;;;;;;6.43;3.63;;;;;;;3.21;93.14;97144.59;10248782;28;20054;-60
2022/04/10 22:59:40;;;;;;;5.68;3.47;;;;;;;3.48;93.50;97196.34;10248441;28;20045;-60
2022/04/10 23:04:40;;;;;;;5.38;3.72;;;;;;;3.04;92.71;97127.16;10272671;28;20037;-60
2022/04/10 23:09:39;;;;;;;6.18;4.75;;;;;;;3.04;93.18;97168.16;10289670;28;20068;-60
2022/04/10 23:14:37;;;;;;;9.80;6.85;;;;;;;2.62;93.56;97186.97;10296078;28;20049;-60
2022/04/10 23:19:37;;;;;;;9.45;7.10;;;;;;;2.55;94.00;97225.25;10296068;28;20040;-60
2022/04/10 23:24:36;;;;;;;12.38;8.00;;;;;;;2.10;94.29;97187.56;10295942;28;20060;-60
2022/04/10 23:29:35;;;;;;;9.98;7.05;;;;;;;2.07;94.17;97199.44;10295534;28;20065;-60
2022/04/10 23:34:38;;;;;;;11.43;6.80;;;;;;;1.92;94.42;97199.91;10295560;28;20061;-60
2022/04/10 23:39:37;;;;;;;10.23;6.30;;;;;;;2.11;94.17;97225.13;10295316;28;20073;-60